createdAt,value
2023-03-18T00:01:07.251Z,16.17
2023-03-18T00:03:37.710Z,12.10
2023-03-18T00:06:11.676Z,18.67
2023-03-18T00:08:41.028Z,16.25
2023-03-18T00:11:11.158Z,18.20
2023-03-18T00:13:38.114Z,14.98
2023-03-18T00:16:07.041Z,14.73
2023-03-18T00:18:35.315Z,21.10
2023-03-18T00:21:03.893Z,17.92
2023-03-18T00:23:33.053Z,18.45
2023-03-18T00:26:01.511Z,17.73
2023-03-18T00:28:29.450Z,17.73
2023-03-18T00:31:03.244Z,16.92
2023-03-18T00:33:30.292Z,15.73
2023-03-18T00:35:58.130Z,14.25
2023-03-18T00:38:25.020Z,13.75
2023-03-18T00:40:53.681Z,16.67
2023-03-18T00:43:23.565Z,19.30
2023-03-18T00:45:51.166Z,17.50
2023-03-18T00:48:18.564Z,15.90
2023-03-18T00:50:45.656Z,19.75
2023-03-18T00:53:14.399Z,17.02
2023-03-18T00:55:42.285Z,17.83
2023-03-18T00:58:10.781Z,17.65
2023-03-18T01:00:41.357Z,16.75
2023-03-18T01:03:08.696Z,15.75
2023-03-18T01:05:38.196Z,18.63
2023-03-18T01:08:05.474Z,15.40
2023-03-18T01:10:33.078Z,14.23
2023-03-18T01:13:01.050Z,18.33
2023-03-18T01:15:28.338Z,15.30
2023-03-18T01:17:57.050Z,17.50
2023-03-18T01:20:28.249Z,19.30
2023-03-18T01:22:59.193Z,17.52
2023-03-18T01:25:27.418Z,18.75
2023-03-18T01:27:54.773Z,16.65
2023-03-18T01:30:23.655Z,14.10
2023-03-18T01:32:51.926Z,16.55
2023-03-18T01:35:20.153Z,15.38
2023-03-18T01:37:49.020Z,16.90
2023-03-18T01:40:17.207Z,16.13
2023-03-18T01:42:56.670Z,13.43
2023-03-18T01:47:58.608Z,15.02
2023-03-18T01:50:33.399Z,14.80
2023-03-18T01:53:13.891Z,18.33
2023-03-18T01:55:43.260Z,14.02
2023-03-18T01:58:22.606Z,14.50
2023-03-18T02:01:13.061Z,20.00
2023-03-18T02:03:55.721Z,15.27
2023-03-18T02:06:44.357Z,18.65
2023-03-18T02:09:13.008Z,18.52
2023-03-18T02:11:46.619Z,17.92
2023-03-18T02:14:20.627Z,17.05
2023-03-18T02:17:15.232Z,18.40
2023-03-18T02:20:12.610Z,14.25
2023-03-18T02:22:46.928Z,17.75
2023-03-18T02:26:01.895Z,23.33
2023-03-18T02:28:32.817Z,17.33
2023-03-18T02:31:05.742Z,23.65
2023-03-18T02:33:39.249Z,25.95
2023-03-18T02:36:19.589Z,25.35
2023-03-18T02:38:48.200Z,23.70
2023-03-18T02:41:29.788Z,25.58
2023-03-18T02:43:57.484Z,14.60
2023-03-18T02:47:04.180Z,22.25
2023-03-18T02:49:32.706Z,23.85
2023-03-18T02:52:00.688Z,22.40
2023-03-18T02:54:30.614Z,25.77
2023-03-18T02:56:57.740Z,30.30
2023-03-18T02:59:25.621Z,29.45
2023-03-18T03:01:55.798Z,28.20
2023-03-18T03:04:25.727Z,27.70
2023-03-18T03:06:56.679Z,23.75
2023-03-18T03:09:35.848Z,37.17
2023-03-18T03:12:05.588Z,28.63
2023-03-18T03:14:33.579Z,29.95
2023-03-18T03:17:02.685Z,27.95
2023-03-18T03:19:30.086Z,32.05
2023-03-18T03:21:57.187Z,27.15
2023-03-18T03:24:25.796Z,22.17
2023-03-18T03:26:52.878Z,24.98
2023-03-18T03:29:20.314Z,30.38
2023-03-18T03:31:49.707Z,27.27
2023-03-18T03:34:16.727Z,28.83
2023-03-18T03:36:43.572Z,28.77
2023-03-18T03:39:10.715Z,30.58
2023-03-18T03:41:37.810Z,32.50
2023-03-18T03:44:04.982Z,28.10
2023-03-18T03:46:32.183Z,33.75
2023-03-18T03:48:59.554Z,31.27
2023-03-18T03:51:26.435Z,28.33
2023-03-18T03:53:54.096Z,28.23
2023-03-18T03:56:21.189Z,32.90
2023-03-18T03:58:48.086Z,44.63
2023-03-18T04:01:15.590Z,34.83
2023-03-18T04:03:44.481Z,34.47
2023-03-18T04:06:12.114Z,38.08
2023-03-18T04:08:46.258Z,30.25
2023-03-18T04:11:13.149Z,33.05
2023-03-18T04:13:43.526Z,39.45
2023-03-18T04:16:14.847Z,33.95
2023-03-18T04:18:41.815Z,38.17
2023-03-18T04:21:08.830Z,33.65
2023-03-18T04:23:43.744Z,40.13
2023-03-18T04:26:13.095Z,35.85
2023-03-18T04:28:40.542Z,35.58
2023-03-18T04:31:09.964Z,34.47
2023-03-18T04:33:37.262Z,33.00
2023-03-18T04:36:04.378Z,35.03
2023-03-18T04:38:33.135Z,33.65
2023-03-18T04:41:00.457Z,38.28
2023-03-18T04:43:27.588Z,36.42
2023-03-18T04:45:54.827Z,37.55
2023-03-18T04:48:22.374Z,41.25
2023-03-18T04:50:49.677Z,39.92
2023-03-18T04:53:22.364Z,39.80
2023-03-18T04:55:51.664Z,41.92
2023-03-18T05:01:17.560Z,36.08
2023-03-18T05:03:44.589Z,42.15
2023-03-18T05:06:23.558Z,39.22
2023-03-18T05:09:06.938Z,35.05
2023-03-18T05:11:35.500Z,33.55
2023-03-18T05:14:15.562Z,30.70
2023-03-18T05:16:46.471Z,40.30
2023-03-18T05:19:14.562Z,43.40
2023-03-18T05:21:49.785Z,36.35
2023-03-18T05:24:18.519Z,46.88
2023-03-18T05:26:45.760Z,42.90
2023-03-18T05:29:13.870Z,41.20
2023-03-18T05:32:01.172Z,36.08
2023-03-18T05:34:29.138Z,40.60
2023-03-18T05:36:57.738Z,37.45
2023-03-18T05:39:26.263Z,39.95
2023-03-18T05:41:53.229Z,37.85
2023-03-18T05:44:26.425Z,39.75
2023-03-18T05:46:56.754Z,37.72
2023-03-18T05:49:36.723Z,35.60
2023-03-18T05:52:23.836Z,36.55
2023-03-18T05:54:54.069Z,40.15
2023-03-18T05:57:26.406Z,36.85
2023-03-18T06:00:00.834Z,33.85
2023-03-18T06:02:30.443Z,41.90
2023-03-18T06:04:58.485Z,37.85
2023-03-18T06:07:25.340Z,39.88
2023-03-18T06:09:53.525Z,33.70
2023-03-18T06:12:23.089Z,27.92
2023-03-18T06:14:50.664Z,34.50
2023-03-18T06:17:17.717Z,35.95
2023-03-18T06:19:45.820Z,35.50
2023-03-18T06:22:13.006Z,34.58
2023-03-18T06:24:39.860Z,37.67
2023-03-18T06:27:07.469Z,38.22
2023-03-18T06:29:35.820Z,39.63
2023-03-18T06:32:10.033Z,40.42
2023-03-18T06:34:38.665Z,40.30
2023-03-18T06:37:06.777Z,39.80
2023-03-18T06:39:35.805Z,38.67
2023-03-18T06:42:05.874Z,32.45
2023-03-18T06:44:42.124Z,35.28
2023-03-18T06:47:22.880Z,35.13
2023-03-18T06:49:56.871Z,34.00
2023-03-18T06:52:31.718Z,30.00
2023-03-18T06:55:06.595Z,32.75
2023-03-18T06:57:37.349Z,23.80
2023-03-18T07:00:05.231Z,27.85
2023-03-18T07:02:32.140Z,28.33
2023-03-18T07:05:00.299Z,24.38
2023-03-18T07:07:29.062Z,22.45
2023-03-18T07:09:56.065Z,26.50
2023-03-18T07:12:23.139Z,22.25
2023-03-18T07:14:50.601Z,22.17
2023-03-18T07:17:19.879Z,23.90
2023-03-18T07:19:46.974Z,25.42
2023-03-18T07:22:17.362Z,25.73
2023-03-18T07:24:45.399Z,23.38
2023-03-18T07:27:14.563Z,21.58
2023-03-18T07:29:41.812Z,24.67
2023-03-18T07:32:08.847Z,20.98
2023-03-18T07:34:36.102Z,25.70
2023-03-18T07:37:04.106Z,19.38
2023-03-18T07:39:31.810Z,19.48
2023-03-18T07:41:58.715Z,21.55
2023-03-18T07:44:29.860Z,17.35
2023-03-18T07:46:57.075Z,19.83
2023-03-18T07:49:24.116Z,17.52
2023-03-18T07:51:50.978Z,20.75
2023-03-18T07:54:18.113Z,20.92
2023-03-18T07:56:44.969Z,23.02
2023-03-18T07:59:12.439Z,24.98
2023-03-18T08:01:39.880Z,23.80
2023-03-18T08:04:07.056Z,22.80
2023-03-18T08:06:34.532Z,29.20
2023-03-18T08:09:03.629Z,21.95
2023-03-18T08:11:33.148Z,21.70
2023-03-18T08:14:00.607Z,20.90
2023-03-18T08:16:27.546Z,18.90
2023-03-18T08:18:54.428Z,20.20
2023-03-18T08:21:21.206Z,19.35
2023-03-18T08:23:48.544Z,19.75
2023-03-18T08:26:15.541Z,19.13
2023-03-18T08:28:42.400Z,19.20
2023-03-18T08:31:09.662Z,17.55
2023-03-18T08:33:36.734Z,20.77
2023-03-18T08:36:04.122Z,16.08
2023-03-18T08:38:30.956Z,16.10
2023-03-18T08:40:57.973Z,14.65
2023-03-18T08:43:25.685Z,17.63
2023-03-18T08:45:56.700Z,20.33
2023-03-18T08:48:25.707Z,17.70
2023-03-18T08:50:52.757Z,14.73
2023-03-18T08:53:19.702Z,13.90
2023-03-18T08:55:47.765Z,16.05
2023-03-18T08:58:14.567Z,13.77
2023-03-18T09:00:42.975Z,15.15
2023-03-18T09:03:10.199Z,18.13
2023-03-18T09:05:38.606Z,14.75
2023-03-18T09:08:06.596Z,18.75
2023-03-18T09:10:33.651Z,15.48
2023-03-18T09:13:01.009Z,16.30
2023-03-18T09:15:28.060Z,19.15
2023-03-18T09:18:10.273Z,13.70
2023-03-18T09:20:38.974Z,16.20
2023-03-18T09:23:07.468Z,14.52
2023-03-18T09:25:35.163Z,13.88
2023-03-18T09:28:02.367Z,17.70
2023-03-18T09:30:30.187Z,12.35
2023-03-18T09:32:57.318Z,12.43
2023-03-18T09:35:25.123Z,11.80
2023-03-18T09:37:53.956Z,10.93
2023-03-18T09:40:38.050Z,12.07
2023-03-18T09:43:14.299Z,11.05
2023-03-18T09:46:15.339Z,9.70
2023-03-18T09:49:10.170Z,10.48
2023-03-18T09:51:39.893Z,14.02
2023-03-18T09:54:20.226Z,14.20
2023-03-18T09:56:47.836Z,13.90
2023-03-18T09:59:28.827Z,16.48
2023-03-18T10:01:58.517Z,12.38
2023-03-18T10:04:42.977Z,11.60
2023-03-18T10:07:24.259Z,15.77
2023-03-18T10:10:11.979Z,10.93
2023-03-18T10:12:50.665Z,13.18
2023-03-18T10:15:32.836Z,14.82
2023-03-18T10:18:18.537Z,13.65
2023-03-18T10:21:15.628Z,14.35
2023-03-18T10:24:17.038Z,9.75
2023-03-18T10:27:11.005Z,15.07
2023-03-18T10:30:08.732Z,11.57
2023-03-18T10:32:54.690Z,9.70
2023-03-18T10:35:51.401Z,8.13
2023-03-18T10:38:26.489Z,9.85
2023-03-18T10:40:55.474Z,9.15
2023-03-18T10:43:29.920Z,10.27
2023-03-18T10:46:07.371Z,8.90
2023-03-18T10:49:06.247Z,8.50
2023-03-18T10:51:43.516Z,8.85
2023-03-18T10:54:17.119Z,8.50
2023-03-18T10:56:44.923Z,8.45
2023-03-18T10:59:18.097Z,7.00
2023-03-18T11:01:57.865Z,10.32
2023-03-18T11:04:28.817Z,5.20
2023-03-18T11:07:07.561Z,9.13
2023-03-18T11:09:39.497Z,9.45
2023-03-18T11:14:56.573Z,9.10
2023-03-18T11:17:33.247Z,7.63
2023-03-18T11:20:08.016Z,11.02
2023-03-18T11:22:37.574Z,8.57
2023-03-18T11:25:18.877Z,6.88
2023-03-18T11:27:52.986Z,8.25
2023-03-18T11:30:34.010Z,6.72
2023-03-18T11:33:12.374Z,6.13
2023-03-18T11:35:52.165Z,6.25
2023-03-18T11:38:32.000Z,8.40
2023-03-18T11:41:16.980Z,6.32
2023-03-18T11:44:27.323Z,5.72
2023-03-18T11:47:05.308Z,10.82
2023-03-18T11:49:33.013Z,8.43
2023-03-18T11:52:08.693Z,8.45
2023-03-18T11:55:35.876Z,8.07
2023-03-18T11:59:02.179Z,8.40
2023-03-18T12:02:09.987Z,6.57
2023-03-18T12:04:55.505Z,6.63
2023-03-18T12:07:55.696Z,4.82
2023-03-18T12:10:38.014Z,6.18
2023-03-18T12:13:36.285Z,6.55
2023-03-18T12:16:20.135Z,3.88
2023-03-18T12:18:57.046Z,6.97
2023-03-18T12:21:46.496Z,6.32
2023-03-18T12:24:32.873Z,5.43
2023-03-18T12:27:36.732Z,6.53
2023-03-18T12:30:42.584Z,9.60
2023-03-18T12:33:40.285Z,9.10
2023-03-18T12:36:46.283Z,4.93
2023-03-18T12:39:33.974Z,6.72
2023-03-18T12:42:29.464Z,7.53
2023-03-18T12:45:03.077Z,6.10
2023-03-18T12:47:50.824Z,5.07
2023-03-18T12:50:29.352Z,5.57
2023-03-18T12:53:31.073Z,5.25
2023-03-18T12:56:05.727Z,7.68
2023-03-18T12:58:41.886Z,6.25
2023-03-18T13:01:22.246Z,4.53
2023-03-18T13:03:54.597Z,5.72
2023-03-18T13:06:40.687Z,5.10
2023-03-18T13:09:52.748Z,5.55
2023-03-18T13:12:38.844Z,8.82
2023-03-18T13:15:17.830Z,6.43
2023-03-18T13:17:49.074Z,7.78
2023-03-18T13:20:33.368Z,7.93
2023-03-18T13:23:28.037Z,6.05
2023-03-18T13:26:04.153Z,8.13
2023-03-18T13:28:56.817Z,7.25
2023-03-18T13:31:57.225Z,3.55
2023-03-18T13:35:11.397Z,6.05
2023-03-18T13:38:02.185Z,4.82
2023-03-18T13:40:58.057Z,6.30
2023-03-18T13:43:28.037Z,6.85
2023-03-18T13:45:58.962Z,4.70
2023-03-18T13:48:35.073Z,5.03
2023-03-18T13:51:39.998Z,5.57
2023-03-18T13:54:18.899Z,6.15
2023-03-18T13:56:55.681Z,10.55
2023-03-18T13:59:34.607Z,5.80
2023-03-18T14:02:29.399Z,7.45
2023-03-18T14:04:59.900Z,9.02
2023-03-18T14:07:28.582Z,3.70
2023-03-18T14:10:17.121Z,5.75
2023-03-18T14:12:50.280Z,5.07
2023-03-18T14:15:39.098Z,3.90
2023-03-18T14:18:27.256Z,5.28
2023-03-18T14:21:00.554Z,5.18
2023-03-18T14:23:42.755Z,5.50
2023-03-18T14:26:26.544Z,2.67
2023-03-18T14:29:22.544Z,3.92
2023-03-18T14:31:58.030Z,6.53
2023-03-18T14:34:59.758Z,3.63
2023-03-18T14:37:32.774Z,3.20
2023-03-18T14:40:17.735Z,3.00
2023-03-18T14:43:00.859Z,4.95
2023-03-18T14:45:34.949Z,3.47
2023-03-18T14:48:14.694Z,4.38
2023-03-18T14:50:52.635Z,4.72
2023-03-18T14:53:30.594Z,2.75
2023-03-18T14:55:58.896Z,2.90
2023-03-18T14:58:28.372Z,4.20
2023-03-18T15:01:09.835Z,2.88
2023-03-18T15:03:42.741Z,4.00
2023-03-18T15:06:20.420Z,3.55
2023-03-18T15:09:04.593Z,2.15
2023-03-18T15:11:43.615Z,3.22
2023-03-18T15:14:37.927Z,3.45
2023-03-18T15:17:14.519Z,4.68
2023-03-18T15:19:41.835Z,6.05
2023-03-18T15:22:16.487Z,2.08
2023-03-18T15:24:43.698Z,4.75
2023-03-18T15:27:19.591Z,5.15
2023-03-18T15:29:55.924Z,6.18
2023-03-18T15:32:32.893Z,4.95
2023-03-18T15:35:23.898Z,3.85
2023-03-18T15:38:26.830Z,3.45
2023-03-18T15:41:14.091Z,6.65
2023-03-18T15:43:47.540Z,5.22
2023-03-18T15:46:23.435Z,10.90
2023-03-18T15:48:55.706Z,3.22
2023-03-18T15:51:45.198Z,3.60
2023-03-18T15:54:29.788Z,3.40
2023-03-18T15:56:59.362Z,3.22
2023-03-18T15:59:31.133Z,4.65
2023-03-18T16:01:59.821Z,2.83
2023-03-18T16:04:33.070Z,3.85
2023-03-18T16:06:59.875Z,3.47
2023-03-18T16:09:26.962Z,2.97
2023-03-18T16:12:01.520Z,3.47
2023-03-18T16:14:41.900Z,4.32
2023-03-18T16:17:14.958Z,3.40
2023-03-18T16:19:43.744Z,5.00
2023-03-18T16:22:10.663Z,4.65
2023-03-18T16:24:37.481Z,4.22
2023-03-18T16:27:06.023Z,7.70
2023-03-18T16:29:38.275Z,5.47
2023-03-18T16:32:05.903Z,4.90
2023-03-18T16:34:33.461Z,3.05
2023-03-18T16:37:00.366Z,7.80
2023-03-18T16:39:35.092Z,3.95
2023-03-18T16:42:06.206Z,4.82
2023-03-18T16:44:38.130Z,3.78
2023-03-18T16:49:34.582Z,4.93
2023-03-18T16:52:04.175Z,6.97
2023-03-18T16:54:34.437Z,6.22
2023-03-18T16:57:04.535Z,5.43
2023-03-18T16:59:36.916Z,7.53
2023-03-18T17:02:05.570Z,6.13
2023-03-18T17:04:35.049Z,2.70
2023-03-18T17:07:04.660Z,7.00
2023-03-18T17:09:32.124Z,3.83
2023-03-18T17:12:07.456Z,3.55
2023-03-18T17:14:46.406Z,4.32
2023-03-18T17:17:28.072Z,3.97
2023-03-18T17:19:56.122Z,5.45
2023-03-18T17:22:32.458Z,9.73
2023-03-18T17:25:02.554Z,5.38
2023-03-18T17:27:45.116Z,6.43
2023-03-18T17:30:31.295Z,4.95
2023-03-18T17:33:03.541Z,5.15
2023-03-18T17:35:31.143Z,5.15
2023-03-18T17:37:59.199Z,6.15
2023-03-18T17:40:30.352Z,4.72
2023-03-18T17:42:57.391Z,7.43
2023-03-18T17:45:32.417Z,10.50
2023-03-18T17:48:34.462Z,14.63
2023-03-18T17:51:18.907Z,10.57
2023-03-18T17:53:49.988Z,15.43
2023-03-18T17:56:19.834Z,15.23
2023-03-18T17:58:50.546Z,13.70
2023-03-18T18:01:27.372Z,8.45
2023-03-18T18:03:57.308Z,9.65
2023-03-18T18:06:29.356Z,6.97
2023-03-18T18:09:00.245Z,6.05
2023-03-18T18:11:34.983Z,6.85
2023-03-18T18:14:29.079Z,8.57
2023-03-18T18:16:56.657Z,6.60
2023-03-18T18:19:24.332Z,6.70
2023-03-18T18:21:53.209Z,12.73
2023-03-18T18:24:28.037Z,23.40
2023-03-18T18:26:55.550Z,16.38
2023-03-18T18:29:33.232Z,17.45
2023-03-18T18:32:02.315Z,11.15
2023-03-18T18:34:29.143Z,10.43
2023-03-18T18:36:56.810Z,11.52
2023-03-18T18:39:24.292Z,11.90
2023-03-18T18:41:51.366Z,8.85
2023-03-18T18:44:19.128Z,9.57
2023-03-18T18:46:46.477Z,16.73
2023-03-18T18:49:24.365Z,20.00
2023-03-18T18:51:54.838Z,23.73
2023-03-18T18:54:24.204Z,36.25
2023-03-18T18:56:52.227Z,14.10
2023-03-18T18:59:26.583Z,11.32
2023-03-18T19:01:55.505Z,13.90
2023-03-18T19:04:23.691Z,11.52
2023-03-18T19:06:52.539Z,10.07
2023-03-18T19:09:26.994Z,8.02
2023-03-18T19:11:56.379Z,8.52
2023-03-18T19:14:27.643Z,7.00
2023-03-18T19:16:58.842Z,8.02
2023-03-18T19:19:29.829Z,12.60
2023-03-18T19:21:57.634Z,22.85
2023-03-18T19:24:31.993Z,24.63
2023-03-18T19:27:03.252Z,23.30
2023-03-18T19:29:32.615Z,13.43
2023-03-18T19:32:01.375Z,8.82
2023-03-18T19:34:32.102Z,10.77
2023-03-18T19:36:59.886Z,11.60
2023-03-18T19:39:28.133Z,6.03
2023-03-18T19:41:54.957Z,4.97
2023-03-18T19:44:26.692Z,5.07
2023-03-18T19:46:58.580Z,3.95
2023-03-18T19:49:35.924Z,4.43
2023-03-18T19:52:30.508Z,3.10
2023-03-18T19:54:57.706Z,3.40
2023-03-18T19:57:30.274Z,2.08
2023-03-18T19:59:59.389Z,1.38
2023-03-18T20:02:30.517Z,2.80
2023-03-18T20:05:21.473Z,2.08
2023-03-18T20:10:19.764Z,3.30
2023-03-18T20:12:49.928Z,2.08
2023-03-18T20:15:25.148Z,3.47
2023-03-18T20:17:53.514Z,2.33
2023-03-18T20:20:28.295Z,0.98
2023-03-18T20:23:08.127Z,3.35
2023-03-18T20:25:41.076Z,1.45
2023-03-18T20:28:15.188Z,2.53
2023-03-18T20:30:42.724Z,1.58
2023-03-18T20:33:10.096Z,3.35
2023-03-18T20:35:45.640Z,2.85
2023-03-18T20:38:39.900Z,2.15
2023-03-18T20:41:07.186Z,3.65
2023-03-18T20:43:34.154Z,2.72
2023-03-18T20:46:02.128Z,3.58
2023-03-18T20:48:29.148Z,3.05
2023-03-18T20:50:56.569Z,4.05
2023-03-18T20:53:28.245Z,2.85
2023-03-18T20:55:56.045Z,1.88
2023-03-18T20:58:26.502Z,2.45
2023-03-18T21:00:54.065Z,3.72
2023-03-18T21:03:29.548Z,2.80
2023-03-18T21:06:00.173Z,2.45
2023-03-18T21:08:28.479Z,2.47
2023-03-18T21:10:58.995Z,3.28
2023-03-18T21:13:36.074Z,3.95
2023-03-18T21:16:08.507Z,3.90
2023-03-18T21:18:35.701Z,4.07
2023-03-18T21:21:02.572Z,2.58
2023-03-18T21:23:34.168Z,5.35
2023-03-18T21:26:01.323Z,4.68
2023-03-18T21:28:30.152Z,4.03
2023-03-18T21:30:58.581Z,3.80
2023-03-18T21:33:35.240Z,2.95
2023-03-18T21:36:02.547Z,3.05
2023-03-18T21:38:32.274Z,2.92
2023-03-18T21:41:01.662Z,3.15
2023-03-18T21:43:28.357Z,2.92
2023-03-18T21:45:55.479Z,2.05
2023-03-18T21:48:22.773Z,3.80
2023-03-18T21:50:50.332Z,4.82
2023-03-18T21:53:20.832Z,3.25
2023-03-18T21:55:49.234Z,4.45
2023-03-18T21:58:25.701Z,4.72
2023-03-18T22:00:57.643Z,4.45
2023-03-18T22:03:28.375Z,3.78
2023-03-18T22:05:56.426Z,2.72
2023-03-18T22:08:24.168Z,2.22
2023-03-18T22:10:52.151Z,4.32
2023-03-18T22:13:26.250Z,3.85
2023-03-18T22:15:55.844Z,4.38
2023-03-18T22:18:23.827Z,1.75
2023-03-18T22:20:52.003Z,3.17
2023-03-18T22:23:24.944Z,2.78
2023-03-18T22:25:55.258Z,3.05
2023-03-18T22:28:24.311Z,2.15
2023-03-18T22:30:55.253Z,1.85
2023-03-18T22:33:30.553Z,2.25
2023-03-18T22:35:57.766Z,2.20
2023-03-18T22:38:25.921Z,3.53
2023-03-18T22:40:56.397Z,2.15
2023-03-18T22:43:32.173Z,3.20
2023-03-18T22:46:02.091Z,1.98
2023-03-18T22:48:30.125Z,1.55
2023-03-18T22:50:59.427Z,3.17
2023-03-18T22:53:36.005Z,2.70
2023-03-18T22:56:11.424Z,3.15
2023-03-18T22:58:39.358Z,5.10
2023-03-18T23:01:06.833Z,2.58
2023-03-18T23:03:37.094Z,3.50
2023-03-18T23:06:04.583Z,3.35
2023-03-18T23:08:32.267Z,2.97
2023-03-18T23:11:01.861Z,3.65
2023-03-18T23:13:42.342Z,5.57
2023-03-18T23:16:17.127Z,3.53
2023-03-18T23:18:44.434Z,5.05
2023-03-18T23:21:24.033Z,3.92
2023-03-18T23:23:52.602Z,4.80
2023-03-18T23:26:20.424Z,3.78
2023-03-18T23:28:48.752Z,4.90
2023-03-18T23:31:16.620Z,4.35
2023-03-18T23:33:44.693Z,4.63
2023-03-18T23:36:12.229Z,4.00
2023-03-18T23:38:39.522Z,5.03
2023-03-18T23:41:07.405Z,3.75
2023-03-18T23:43:34.519Z,4.78
2023-03-18T23:46:02.257Z,4.22
2023-03-18T23:48:29.590Z,4.15
2023-03-18T23:50:56.336Z,4.53
2023-03-18T23:53:23.221Z,5.97
2023-03-18T23:55:50.410Z,5.07
2023-03-18T23:58:17.415Z,3.72
